sensor_id;sensor_type;location;lat;lon;timestamp;pressure;altitude;pressure_sealevel;temperature;humidity
81177;BME280;70786;48.272;14.200;2023-07-31T00:01:35;98049.63;;;15.72;82.06
81177;BME280;70786;48.272;14.200;2023-07-31T00:04:01;98058.81;;;15.76;80.77
81177;BME280;70786;48.272;14.200;2023-07-31T00:06:27;98063.09;;;15.77;79.80
81177;BME280;70786;48.272;14.200;2023-07-31T00:08:53;98060.34;;;15.79;80.02
81177;BME280;70786;48.272;14.200;2023-07-31T00:11:19;98067.31;;;15.78;80.17
81177;BME280;70786;48.272;14.200;2023-07-31T00:13:45;98063.44;;;15.63;80.30
81177;BME280;70786;48.272;14.200;2023-07-31T00:16:11;98060.44;;;15.67;80.12
81177;BME280;70786;48.272;14.200;2023-07-31T00:18:37;98069.44;;;15.63;81.00
81177;BME280;70786;48.272;14.200;2023-07-31T00:21:03;98076.28;;;15.64;80.30
81177;BME280;70786;48.272;14.200;2023-07-31T00:23:29;98076.56;;;15.61;80.15
81177;BME280;70786;48.272;14.200;2023-07-31T00:25:55;98070.41;;;15.62;80.41
81177;BME280;70786;48.272;14.200;2023-07-31T00:28:21;98074.53;;;15.65;79.31
81177;BME280;70786;48.272;14.200;2023-07-31T00:30:46;98078.53;;;15.69;79.68
81177;BME280;70786;48.272;14.200;2023-07-31T00:33:12;98081.50;;;15.64;78.80
81177;BME280;70786;48.272;14.200;2023-07-31T00:35:38;98083.28;;;15.64;80.27
81177;BME280;70786;48.272;14.200;2023-07-31T00:38:04;98081.03;;;15.70;79.72
81177;BME280;70786;48.272;14.200;2023-07-31T00:40:35;98080.63;;;15.85;78.67
81177;BME280;70786;48.272;14.200;2023-07-31T00:43:01;98076.66;;;15.81;78.75
81177;BME280;70786;48.272;14.200;2023-07-31T00:45:27;98077.31;;;15.73;78.74
81177;BME280;70786;48.272;14.200;2023-07-31T00:47:54;98080.13;;;15.60;80.05
81177;BME280;70786;48.272;14.200;2023-07-31T00:50:22;98081.47;;;15.55;78.95
81177;BME280;70786;48.272;14.200;2023-07-31T00:52:49;98082.72;;;15.50;80.00
81177;BME280;70786;48.272;14.200;2023-07-31T00:55:16;98087.91;;;15.41;80.55
81177;BME280;70786;48.272;14.200;2023-07-31T00:57:42;98087.03;;;15.40;79.84
81177;BME280;70786;48.272;14.200;2023-07-31T01:00:11;98087.97;;;15.30;80.45
81177;BME280;70786;48.272;14.200;2023-07-31T01:02:37;98079.09;;;15.32;81.07
81177;BME280;70786;48.272;14.200;2023-07-31T01:05:04;98080.25;;;15.18;81.69
81177;BME280;70786;48.272;14.200;2023-07-31T01:10:30;98087.25;;;15.18;81.94
81177;BME280;70786;48.272;14.200;2023-07-31T01:13:02;98084.50;;;15.19;82.07
81177;BME280;70786;48.272;14.200;2023-07-31T01:15:29;98088.31;;;15.15;83.18
81177;BME280;70786;48.272;14.200;2023-07-31T01:17:55;98082.81;;;15.09;83.23
81177;BME280;70786;48.272;14.200;2023-07-31T01:20:23;98088.75;;;15.20;82.52
81177;BME280;70786;48.272;14.200;2023-07-31T01:31:07;98075.59;;;14.91;83.35
81177;BME280;70786;48.272;14.200;2023-07-31T01:33:33;98065.63;;;14.96;83.08
81177;BME280;70786;48.272;14.200;2023-07-31T01:36:00;98062.06;;;14.97;82.89
81177;BME280;70786;48.272;14.200;2023-07-31T01:38:27;98060.00;;;14.91;83.16
81177;BME280;70786;48.272;14.200;2023-07-31T01:40:53;98058.00;;;14.84;83.76
81177;BME280;70786;48.272;14.200;2023-07-31T01:43:19;98059.50;;;14.76;84.20
81177;BME280;70786;48.272;14.200;2023-07-31T01:45:45;98057.41;;;14.70;83.93
81177;BME280;70786;48.272;14.200;2023-07-31T01:48:11;98055.88;;;14.68;84.11
81177;BME280;70786;48.272;14.200;2023-07-31T01:50:37;98054.09;;;14.68;84.79
81177;BME280;70786;48.272;14.200;2023-07-31T01:53:03;98053.13;;;14.69;85.00
81177;BME280;70786;48.272;14.200;2023-07-31T01:55:29;98059.59;;;14.54;84.77
81177;BME280;70786;48.272;14.200;2023-07-31T01:57:55;98054.56;;;14.52;85.80
81177;BME280;70786;48.272;14.200;2023-07-31T02:00:21;98055.94;;;14.45;85.86
81177;BME280;70786;48.272;14.200;2023-07-31T02:02:47;98056.34;;;14.41;85.41
81177;BME280;70786;48.272;14.200;2023-07-31T02:05:16;98060.13;;;14.36;85.18
81177;BME280;70786;48.272;14.200;2023-07-31T02:07:42;98062.41;;;14.30;85.73
81177;BME280;70786;48.272;14.200;2023-07-31T02:10:09;98062.91;;;14.24;86.60
81177;BME280;70786;48.272;14.200;2023-07-31T02:12:40;98064.09;;;13.87;88.67
81177;BME280;70786;48.272;14.200;2023-07-31T02:15:09;98064.34;;;13.73;89.00
81177;BME280;70786;48.272;14.200;2023-07-31T02:17:35;98059.63;;;13.78;88.63
81177;BME280;70786;48.272;14.200;2023-07-31T02:20:02;98065.53;;;13.80;88.22
81177;BME280;70786;48.272;14.200;2023-07-31T02:22:34;98065.06;;;13.75;89.10
81177;BME280;70786;48.272;14.200;2023-07-31T02:25:03;98062.72;;;13.61;90.23
81177;BME280;70786;48.272;14.200;2023-07-31T02:27:32;98067.44;;;13.56;88.62
81177;BME280;70786;48.272;14.200;2023-07-31T02:30:01;98056.81;;;13.59;89.33
81177;BME280;70786;48.272;14.200;2023-07-31T02:32:27;98062.97;;;13.58;89.94
81177;BME280;70786;48.272;14.200;2023-07-31T02:34:53;98058.13;;;13.64;89.69
81177;BME280;70786;48.272;14.200;2023-07-31T02:37:22;98055.16;;;13.69;89.89
81177;BME280;70786;48.272;14.200;2023-07-31T02:39:49;98053.63;;;13.66;89.05
81177;BME280;70786;48.272;14.200;2023-07-31T02:42:17;98059.78;;;13.65;88.26
81177;BME280;70786;48.272;14.200;2023-07-31T02:44:47;98054.84;;;13.62;89.68
81177;BME280;70786;48.272;14.200;2023-07-31T02:47:23;98049.88;;;13.59;89.89
81177;BME280;70786;48.272;14.200;2023-07-31T02:49:52;98050.72;;;13.60;90.64
81177;BME280;70786;48.272;14.200;2023-07-31T02:52:22;98058.75;;;13.45;91.36
81177;BME280;70786;48.272;14.200;2023-07-31T02:54:48;98064.41;;;13.39;91.37
81177;BME280;70786;48.272;14.200;2023-07-31T02:57:17;98065.00;;;13.43;90.45
81177;BME280;70786;48.272;14.200;2023-07-31T02:59:43;98055.78;;;13.50;89.49
81177;BME280;70786;48.272;14.200;2023-07-31T03:02:09;98058.03;;;13.55;91.04
81177;BME280;70786;48.272;14.200;2023-07-31T03:04:37;98057.53;;;13.61;90.16
81177;BME280;70786;48.272;14.200;2023-07-31T03:07:04;98047.50;;;13.67;89.20
81177;BME280;70786;48.272;14.200;2023-07-31T03:09:30;98052.00;;;13.65;89.57
81177;BME280;70786;48.272;14.200;2023-07-31T03:11:57;98050.31;;;13.64;88.35
81177;BME280;70786;48.272;14.200;2023-07-31T03:14:29;98052.34;;;13.61;89.03
81177;BME280;70786;48.272;14.200;2023-07-31T03:16:58;98048.94;;;13.60;89.26
81177;BME280;70786;48.272;14.200;2023-07-31T03:19:24;98047.28;;;13.59;89.19
81177;BME280;70786;48.272;14.200;2023-07-31T03:21:51;98054.94;;;13.61;87.59
81177;BME280;70786;48.272;14.200;2023-07-31T03:24:20;98060.84;;;13.63;87.70
81177;BME280;70786;48.272;14.200;2023-07-31T03:26:47;98060.59;;;13.66;87.04
81177;BME280;70786;48.272;14.200;2023-07-31T03:29:16;98056.59;;;13.62;87.37
81177;BME280;70786;48.272;14.200;2023-07-31T03:31:43;98062.00;;;13.70;86.73
81177;BME280;70786;48.272;14.200;2023-07-31T03:34:11;98062.50;;;13.64;86.77
81177;BME280;70786;48.272;14.200;2023-07-31T03:36:38;98065.56;;;13.58;87.86
81177;BME280;70786;48.272;14.200;2023-07-31T03:39:04;98072.38;;;13.70;86.76
81177;BME280;70786;48.272;14.200;2023-07-31T03:41:31;98067.34;;;13.68;86.21
81177;BME280;70786;48.272;14.200;2023-07-31T03:43:57;98064.59;;;13.59;87.05
81177;BME280;70786;48.272;14.200;2023-07-31T03:46:24;98074.72;;;13.06;89.51
81177;BME280;70786;48.272;14.200;2023-07-31T03:48:56;98065.06;;;12.85;90.63
81177;BME280;70786;48.272;14.200;2023-07-31T03:51:26;98060.34;;;12.90;92.84
81177;BME280;70786;48.272;14.200;2023-07-31T03:53:52;98061.63;;;12.85;93.42
81177;BME280;70786;48.272;14.200;2023-07-31T03:56:19;98065.19;;;12.95;93.56
81177;BME280;70786;48.272;14.200;2023-07-31T03:58:46;98069.78;;;13.03;91.99
81177;BME280;70786;48.272;14.200;2023-07-31T04:01:14;98065.47;;;13.37;89.55
81177;BME280;70786;48.272;14.200;2023-07-31T04:03:43;98061.53;;;13.65;87.21
81177;BME280;70786;48.272;14.200;2023-07-31T04:06:09;98063.75;;;13.81;87.10
81177;BME280;70786;48.272;14.200;2023-07-31T04:08:36;98055.97;;;13.81;86.20
81177;BME280;70786;48.272;14.200;2023-07-31T04:11:03;98056.00;;;13.47;87.73
81177;BME280;70786;48.272;14.200;2023-07-31T04:13:29;98064.59;;;13.14;89.87
81177;BME280;70786;48.272;14.200;2023-07-31T04:15:56;98060.34;;;13.02;91.29
81177;BME280;70786;48.272;14.200;2023-07-31T04:18:27;98056.81;;;12.91;92.07
81177;BME280;70786;48.272;14.200;2023-07-31T04:20:56;98052.44;;;13.14;91.19
81177;BME280;70786;48.272;14.200;2023-07-31T04:23:27;98055.44;;;13.43;90.11
81177;BME280;70786;48.272;14.200;2023-07-31T04:25:57;98063.31;;;13.64;88.67
81177;BME280;70786;48.272;14.200;2023-07-31T04:28:24;98055.59;;;13.85;87.55
81177;BME280;70786;48.272;14.200;2023-07-31T04:30:55;98055.13;;;14.45;83.64
81177;BME280;70786;48.272;14.200;2023-07-31T04:33:22;98053.81;;;14.50;83.69
81177;BME280;70786;48.272;14.200;2023-07-31T04:35:51;98054.34;;;14.33;84.04
81177;BME280;70786;48.272;14.200;2023-07-31T04:38:21;98062.09;;;14.23;83.98
81177;BME280;70786;48.272;14.200;2023-07-31T04:40:48;98061.25;;;14.23;84.44
81177;BME280;70786;48.272;14.200;2023-07-31T04:43:17;98064.31;;;14.28;83.81
81177;BME280;70786;48.272;14.200;2023-07-31T04:45:46;98055.09;;;14.24;84.26
81177;BME280;70786;48.272;14.200;2023-07-31T04:48:28;98061.97;;;14.25;84.02
81177;BME280;70786;48.272;14.200;2023-07-31T04:50:55;98059.59;;;14.22;83.77
81177;BME280;70786;48.272;14.200;2023-07-31T04:53:24;98061.72;;;14.28;83.82
81177;BME280;70786;48.272;14.200;2023-07-31T04:55:55;98063.38;;;14.29;83.21
81177;BME280;70786;48.272;14.200;2023-07-31T04:58:21;98064.25;;;14.39;83.68
81177;BME280;70786;48.272;14.200;2023-07-31T05:00:50;98064.97;;;14.41;83.06
81177;BME280;70786;48.272;14.200;2023-07-31T05:03:17;98071.34;;;14.69;82.36
81177;BME280;70786;48.272;14.200;2023-07-31T05:05:43;98071.50;;;15.60;79.25
81177;BME280;70786;48.272;14.200;2023-07-31T05:08:13;98070.25;;;16.43;76.82
81177;BME280;70786;48.272;14.200;2023-07-31T05:10:40;98070.38;;;17.37;74.35
81177;BME280;70786;48.272;14.200;2023-07-31T05:13:06;98067.84;;;18.01;71.54
81177;BME280;70786;48.272;14.200;2023-07-31T05:15:36;98065.22;;;18.36;71.38
81177;BME280;70786;48.272;14.200;2023-07-31T05:18:02;98067.84;;;18.98;68.91
81177;BME280;70786;48.272;14.200;2023-07-31T05:20:31;98066.16;;;19.23;nan
81177;BME280;70786;48.272;14.200;2023-07-31T05:22:58;98064.38;;;19.58;66.40
81177;BME280;70786;48.272;14.200;2023-07-31T05:25:24;98076.59;;;19.92;65.06
81177;BME280;70786;48.272;14.200;2023-07-31T05:27:53;98058.31;;;20.24;64.92
81177;BME280;70786;48.272;14.200;2023-07-31T05:30:19;98067.63;;;20.19;65.29
81177;BME280;70786;48.272;14.200;2023-07-31T05:32:47;98059.50;;;20.55;61.92
81177;BME280;70786;48.272;14.200;2023-07-31T05:35:13;98055.38;;;20.60;62.17
81177;BME280;70786;48.272;14.200;2023-07-31T05:37:45;98055.19;;;20.86;60.74
81177;BME280;70786;48.272;14.200;2023-07-31T05:40:14;98060.44;;;20.45;62.26
81177;BME280;70786;48.272;14.200;2023-07-31T05:42:41;98060.94;;;20.33;61.09
81177;BME280;70786;48.272;14.200;2023-07-31T05:45:08;98050.09;;;20.85;58.98
81177;BME280;70786;48.272;14.200;2023-07-31T05:47:34;98046.00;;;20.90;58.92
81177;BME280;70786;48.272;14.200;2023-07-31T05:50:01;98048.88;;;21.36;60.27
81177;BME280;70786;48.272;14.200;2023-07-31T05:52:33;98051.38;;;21.13;60.93
81177;BME280;70786;48.272;14.200;2023-07-31T05:54:59;98055.06;;;21.35;57.13
81177;BME280;70786;48.272;14.200;2023-07-31T05:57:28;98050.56;;;22.15;56.89
81177;BME280;70786;48.272;14.200;2023-07-31T05:59:57;98052.75;;;22.11;53.94
81177;BME280;70786;48.272;14.200;2023-07-31T06:02:23;98048.84;;;22.30;52.15
81177;BME280;70786;48.272;14.200;2023-07-31T06:04:53;98053.53;;;21.57;55.31
81177;BME280;70786;48.272;14.200;2023-07-31T06:07:19;98058.84;;;21.41;55.25
81177;BME280;70786;48.272;14.200;2023-07-31T06:09:46;98062.09;;;21.59;52.88
81177;BME280;70786;48.272;14.200;2023-07-31T06:12:15;98062.47;;;21.40;55.54
81177;BME280;70786;48.272;14.200;2023-07-31T06:14:47;98057.97;;;21.01;56.30
81177;BME280;70786;48.272;14.200;2023-07-31T06:17:16;98052.69;;;21.09;56.43
81177;BME280;70786;48.272;14.200;2023-07-31T06:19:46;98041.53;;;21.63;55.07
81177;BME280;70786;48.272;14.200;2023-07-31T06:22:15;98049.22;;;21.65;55.01
81177;BME280;70786;48.272;14.200;2023-07-31T06:24:42;98049.34;;;22.02;53.40
81177;BME280;70786;48.272;14.200;2023-07-31T06:27:09;98051.41;;;22.61;51.94
81177;BME280;70786;48.272;14.200;2023-07-31T06:29:38;98051.13;;;22.10;53.34
81177;BME280;70786;48.272;14.200;2023-07-31T06:32:10;98054.56;;;22.11;51.67
81177;BME280;70786;48.272;14.200;2023-07-31T06:34:42;98048.41;;;22.64;52.55
81177;BME280;70786;48.272;14.200;2023-07-31T06:37:11;98049.66;;;23.36;50.66
81177;BME280;70786;48.272;14.200;2023-07-31T06:39:38;98043.19;;;24.04;48.85
81177;BME280;70786;48.272;14.200;2023-07-31T06:42:04;98050.47;;;23.36;50.23
81177;BME280;70786;48.272;14.200;2023-07-31T06:44:31;98046.44;;;23.70;48.89
81177;BME280;70786;48.272;14.200;2023-07-31T06:47:00;98050.84;;;23.33;51.63
81177;BME280;70786;48.272;14.200;2023-07-31T06:49:27;98049.41;;;22.78;53.16
81177;BME280;70786;48.272;14.200;2023-07-31T06:51:53;98042.81;;;23.71;50.48
81177;BME280;70786;48.272;14.200;2023-07-31T06:54:23;98053.84;;;23.96;49.39
81177;BME280;70786;48.272;14.200;2023-07-31T06:56:55;98042.75;;;24.01;50.75
81177;BME280;70786;48.272;14.200;2023-07-31T06:59:22;98044.63;;;23.71;49.59
81177;BME280;70786;48.272;14.200;2023-07-31T07:01:53;98038.44;;;23.78;50.32
81177;BME280;70786;48.272;14.200;2023-07-31T07:04:22;98041.69;;;23.14;50.60
81177;BME280;70786;48.272;14.200;2023-07-31T07:06:48;98034.91;;;23.71;50.94
81177;BME280;70786;48.272;14.200;2023-07-31T07:09:14;98037.78;;;24.13;48.90
81177;BME280;70786;48.272;14.200;2023-07-31T07:11:40;98031.16;;;24.66;46.82
81177;BME280;70786;48.272;14.200;2023-07-31T07:14:06;98035.06;;;24.06;49.39
81177;BME280;70786;48.272;14.200;2023-07-31T07:16:32;98025.34;;;24.28;47.94
81177;BME280;70786;48.272;14.200;2023-07-31T07:18:58;98025.06;;;24.23;48.94
81177;BME280;70786;48.272;14.200;2023-07-31T07:21:24;98026.69;;;23.15;48.38
81177;BME280;70786;48.272;14.200;2023-07-31T07:23:50;98032.13;;;22.98;50.47
81177;BME280;70786;48.272;14.200;2023-07-31T07:26:16;98027.25;;;22.58;52.56
81177;BME280;70786;48.272;14.200;2023-07-31T07:28:42;98023.91;;;22.64;50.76
81177;BME280;70786;48.272;14.200;2023-07-31T07:31:08;98024.19;;;22.31;50.88
81177;BME280;70786;48.272;14.200;2023-07-31T07:33:34;98028.03;;;22.96;49.82
81177;BME280;70786;48.272;14.200;2023-07-31T07:36:00;98028.75;;;23.85;48.84
81177;BME280;70786;48.272;14.200;2023-07-31T07:38:27;98025.31;;;23.19;48.68
81177;BME280;70786;48.272;14.200;2023-07-31T07:40:53;98027.56;;;23.37;48.44
81177;BME280;70786;48.272;14.200;2023-07-31T07:43:19;98019.75;;;22.99;50.26
81177;BME280;70786;48.272;14.200;2023-07-31T07:45:45;98030.44;;;22.68;50.70
81177;BME280;70786;48.272;14.200;2023-07-31T07:48:11;98027.81;;;22.45;52.29
81177;BME280;70786;48.272;14.200;2023-07-31T07:50:38;98027.50;;;22.63;52.55
81177;BME280;70786;48.272;14.200;2023-07-31T07:53:04;98026.19;;;22.44;50.92
81177;BME280;70786;48.272;14.200;2023-07-31T07:55:30;98027.84;;;22.22;51.00
81177;BME280;70786;48.272;14.200;2023-07-31T07:57:56;98027.19;;;21.97;53.96
81177;BME280;70786;48.272;14.200;2023-07-31T08:00:22;98022.06;;;22.26;55.24
81177;BME280;70786;48.272;14.200;2023-07-31T08:02:48;98011.84;;;21.46;55.09
81177;BME280;70786;48.272;14.200;2023-07-31T08:05:14;98017.72;;;22.11;54.53
81177;BME280;70786;48.272;14.200;2023-07-31T08:07:40;98016.78;;;22.26;53.86
81177;BME280;70786;48.272;14.200;2023-07-31T08:10:06;98013.19;;;22.42;52.14
81177;BME280;70786;48.272;14.200;2023-07-31T08:12:32;98016.34;;;21.92;53.81
81177;BME280;70786;48.272;14.200;2023-07-31T08:14:58;98017.66;;;21.96;55.72
81177;BME280;70786;48.272;14.200;2023-07-31T08:17:25;98006.53;;;22.17;54.06
81177;BME280;70786;48.272;14.200;2023-07-31T08:19:51;98006.94;;;21.97;52.42
81177;BME280;70786;48.272;14.200;2023-07-31T08:22:17;98008.97;;;21.95;52.44
81177;BME280;70786;48.272;14.200;2023-07-31T08:24:43;98014.41;;;21.85;52.66
81177;BME280;70786;48.272;14.200;2023-07-31T08:27:09;98009.56;;;22.28;52.23
81177;BME280;70786;48.272;14.200;2023-07-31T08:29:35;98005.50;;;22.41;51.76
81177;BME280;70786;48.272;14.200;2023-07-31T08:32:01;98004.16;;;22.22;53.33
81177;BME280;70786;48.272;14.200;2023-07-31T08:34:27;98006.66;;;22.15;52.14
81177;BME280;70786;48.272;14.200;2023-07-31T08:36:53;97997.31;;;22.36;54.30
81177;BME280;70786;48.272;14.200;2023-07-31T08:39:19;98012.41;;;21.96;52.09
81177;BME280;70786;48.272;14.200;2023-07-31T08:41:45;97998.13;;;22.36;53.44
81177;BME280;70786;48.272;14.200;2023-07-31T08:44:12;97994.91;;;22.49;53.89
81177;BME280;70786;48.272;14.200;2023-07-31T08:46:39;97990.91;;;22.07;55.29
81177;BME280;70786;48.272;14.200;2023-07-31T08:49:07;97991.00;;;22.22;53.15
81177;BME280;70786;48.272;14.200;2023-07-31T08:51:36;97995.00;;;22.18;51.59
81177;BME280;70786;48.272;14.200;2023-07-31T08:54:02;97994.00;;;21.96;51.13
81177;BME280;70786;48.272;14.200;2023-07-31T08:56:32;97989.41;;;22.36;55.25
81177;BME280;70786;48.272;14.200;2023-07-31T08:59:00;97984.00;;;22.52;50.02
81177;BME280;70786;48.272;14.200;2023-07-31T09:01:29;97980.38;;;22.53;49.03
81177;BME280;70786;48.272;14.200;2023-07-31T09:03:57;97975.31;;;22.81;50.28
81177;BME280;70786;48.272;14.200;2023-07-31T09:06:26;97978.66;;;22.75;49.83
81177;BME280;70786;48.272;14.200;2023-07-31T09:08:53;97964.38;;;22.55;51.28
81177;BME280;70786;48.272;14.200;2023-07-31T09:11:21;97973.59;;;22.21;50.92
81177;BME280;70786;48.272;14.200;2023-07-31T09:13:48;97971.94;;;21.74;51.23
81177;BME280;70786;48.272;14.200;2023-07-31T09:16:14;97968.88;;;21.62;51.88
81177;BME280;70786;48.272;14.200;2023-07-31T09:18:53;97963.22;;;21.73;52.19
81177;BME280;70786;48.272;14.200;2023-07-31T09:21:21;97973.47;;;22.37;52.13
81177;BME280;70786;48.272;14.200;2023-07-31T09:23:47;97966.41;;;22.67;53.48
81177;BME280;70786;48.272;14.200;2023-07-31T09:26:36;97959.13;;;22.69;52.49
81177;BME280;70786;48.272;14.200;2023-07-31T09:29:06;97963.88;;;22.89;52.84
81177;BME280;70786;48.272;14.200;2023-07-31T09:31:42;97967.22;;;22.83;51.27
81177;BME280;70786;48.272;14.200;2023-07-31T09:34:09;97961.28;;;23.40;53.55
81177;BME280;70786;48.272;14.200;2023-07-31T09:36:43;97964.41;;;23.29;49.26
81177;BME280;70786;48.272;14.200;2023-07-31T09:39:10;97960.69;;;22.93;50.50
81177;BME280;70786;48.272;14.200;2023-07-31T09:41:44;97947.50;;;23.74;50.03
81177;BME280;70786;48.272;14.200;2023-07-31T09:44:11;97944.44;;;23.56;51.73
81177;BME280;70786;48.272;14.200;2023-07-31T09:46:37;97944.97;;;24.65;49.62
81177;BME280;70786;48.272;14.200;2023-07-31T09:51:31;97943.31;;;24.58;47.41
81177;BME280;70786;48.272;14.200;2023-07-31T09:53:57;97943.31;;;24.58;49.25
81177;BME280;70786;48.272;14.200;2023-07-31T09:56:23;97944.72;;;24.88;45.94
81177;BME280;70786;48.272;14.200;2023-07-31T09:58:51;97932.78;;;24.64;44.92
81177;BME280;70786;48.272;14.200;2023-07-31T10:01:17;97930.63;;;25.84;46.41
81177;BME280;70786;48.272;14.200;2023-07-31T10:03:45;97919.31;;;25.35;41.74
81177;BME280;70786;48.272;14.200;2023-07-31T10:06:13;97925.00;;;25.39;42.02
81177;BME280;70786;48.272;14.200;2023-07-31T10:08:43;97914.66;;;25.64;45.70
81177;BME280;70786;48.272;14.200;2023-07-31T10:11:12;97923.09;;;26.27;45.52
81177;BME280;70786;48.272;14.200;2023-07-31T10:13:41;97911.69;;;26.13;43.53
81177;BME280;70786;48.272;14.200;2023-07-31T10:16:07;97909.44;;;26.30;41.79
81177;BME280;70786;48.272;14.200;2023-07-31T10:18:35;97910.09;;;27.49;41.38
81177;BME280;70786;48.272;14.200;2023-07-31T10:21:02;97912.00;;;26.84;42.44
81177;BME280;70786;48.272;14.200;2023-07-31T10:23:28;97900.66;;;26.63;42.35
81177;BME280;70786;48.272;14.200;2023-07-31T10:25:55;97906.13;;;26.62;42.75
81177;BME280;70786;48.272;14.200;2023-07-31T10:28:24;97903.53;;;25.82;43.31
81177;BME280;70786;48.272;14.200;2023-07-31T10:30:51;97898.25;;;25.82;43.05
81177;BME280;70786;48.272;14.200;2023-07-31T10:33:17;97897.00;;;25.78;41.10
81177;BME280;70786;48.272;14.200;2023-07-31T10:35:47;97882.84;;;24.69;43.60
81177;BME280;70786;48.272;14.200;2023-07-31T10:38:14;97882.75;;;25.65;44.74
81177;BME280;70786;48.272;14.200;2023-07-31T10:40:40;97883.94;;;25.56;44.48
81177;BME280;70786;48.272;14.200;2023-07-31T10:43:06;97883.75;;;26.51;47.46
81177;BME280;70786;48.272;14.200;2023-07-31T10:45:37;97879.22;;;26.71;44.07
81177;BME280;70786;48.272;14.200;2023-07-31T10:48:22;97877.00;;;26.68;38.34
81177;BME280;70786;48.272;14.200;2023-07-31T10:50:56;97876.16;;;26.68;42.26
81177;BME280;70786;48.272;14.200;2023-07-31T10:55:49;97869.75;;;25.90;41.77
81177;BME280;70786;48.272;14.200;2023-07-31T10:58:19;97866.03;;;25.78;42.60
81177;BME280;70786;48.272;14.200;2023-07-31T11:00:45;97858.06;;;26.45;44.31
81177;BME280;70786;48.272;14.200;2023-07-31T11:03:19;97866.47;;;25.55;42.96
81177;BME280;70786;48.272;14.200;2023-07-31T11:06:01;97862.34;;;25.46;39.14
81177;BME280;70786;48.272;14.200;2023-07-31T11:08:34;97855.03;;;26.34;40.46
81177;BME280;70786;48.272;14.200;2023-07-31T11:13:40;97851.03;;;25.92;38.50
81177;BME280;70786;48.272;14.200;2023-07-31T11:16:07;97842.66;;;26.02;42.16
81177;BME280;70786;48.272;14.200;2023-07-31T11:18:33;97839.53;;;25.18;43.55
81177;BME280;70786;48.272;14.200;2023-07-31T11:20:59;97836.53;;;25.41;45.11
81177;BME280;70786;48.272;14.200;2023-07-31T11:23:25;97829.75;;;25.19;41.57
81177;BME280;70786;48.272;14.200;2023-07-31T11:25:51;97829.66;;;24.86;44.91
81177;BME280;70786;48.272;14.200;2023-07-31T11:28:18;97826.16;;;25.60;42.08
81177;BME280;70786;48.272;14.200;2023-07-31T11:30:45;97827.97;;;25.46;42.74
81177;BME280;70786;48.272;14.200;2023-07-31T11:33:13;97822.75;;;24.91;40.19
81177;BME280;70786;48.272;14.200;2023-07-31T11:35:43;97825.38;;;24.85;42.95
81177;BME280;70786;48.272;14.200;2023-07-31T11:38:28;97819.94;;;24.99;43.66
81177;BME280;70786;48.272;14.200;2023-07-31T11:40:57;97816.34;;;25.27;41.80
81177;BME280;70786;48.272;14.200;2023-07-31T11:43:24;97813.75;;;24.72;42.80
81177;BME280;70786;48.272;14.200;2023-07-31T11:45:52;97804.38;;;25.51;43.09
81177;BME280;70786;48.272;14.200;2023-07-31T11:48:26;97808.88;;;25.97;42.70
81177;BME280;70786;48.272;14.200;2023-07-31T11:51:04;97802.75;;;25.77;42.28
81177;BME280;70786;48.272;14.200;2023-07-31T11:56:08;97792.78;;;24.58;43.64
81177;BME280;70786;48.272;14.200;2023-07-31T11:58:36;97804.88;;;25.00;44.11
81177;BME280;70786;48.272;14.200;2023-07-31T12:01:02;97800.50;;;25.14;42.97
81177;BME280;70786;48.272;14.200;2023-07-31T12:03:29;97808.41;;;25.14;44.65
81177;BME280;70786;48.272;14.200;2023-07-31T12:05:56;97802.53;;;25.45;44.50
81177;BME280;70786;48.272;14.200;2023-07-31T12:08:23;97792.38;;;25.42;44.20
81177;BME280;70786;48.272;14.200;2023-07-31T12:10:51;97797.88;;;25.80;44.44
81177;BME280;70786;48.272;14.200;2023-07-31T12:13:22;97791.03;;;24.78;45.01
81177;BME280;70786;48.272;14.200;2023-07-31T12:15:48;97794.25;;;24.80;42.25
81177;BME280;70786;48.272;14.200;2023-07-31T12:18:19;97784.84;;;25.92;42.77
81177;BME280;70786;48.272;14.200;2023-07-31T12:20:49;97776.09;;;25.58;42.20
81177;BME280;70786;48.272;14.200;2023-07-31T12:23:23;97763.41;;;25.07;43.26
81177;BME280;70786;48.272;14.200;2023-07-31T12:26:04;97764.44;;;24.99;42.44
81177;BME280;70786;48.272;14.200;2023-07-31T12:28:32;97754.84;;;24.92;45.48
81177;BME280;70786;48.272;14.200;2023-07-31T12:31:00;97761.25;;;25.37;44.35
81177;BME280;70786;48.272;14.200;2023-07-31T12:33:35;97761.03;;;25.65;42.87
81177;BME280;70786;48.272;14.200;2023-07-31T12:36:03;97747.00;;;25.85;40.83
81177;BME280;70786;48.272;14.200;2023-07-31T12:38:30;97740.22;;;26.09;40.04
81177;BME280;70786;48.272;14.200;2023-07-31T12:40:56;97733.56;;;25.33;42.20
81177;BME280;70786;48.272;14.200;2023-07-31T12:43:22;97733.53;;;25.07;42.89
81177;BME280;70786;48.272;14.200;2023-07-31T12:45:48;97732.22;;;24.63;43.45
81177;BME280;70786;48.272;14.200;2023-07-31T12:48:14;97717.50;;;25.08;43.34
81177;BME280;70786;48.272;14.200;2023-07-31T12:50:40;97717.50;;;25.15;43.84
81177;BME280;70786;48.272;14.200;2023-07-31T12:53:06;97720.16;;;25.21;42.60
81177;BME280;70786;48.272;14.200;2023-07-31T12:55:32;97715.28;;;25.18;45.47
81177;BME280;70786;48.272;14.200;2023-07-31T12:58:00;97716.88;;;24.99;41.63
81177;BME280;70786;48.272;14.200;2023-07-31T13:00:26;97710.19;;;25.30;41.62
81177;BME280;70786;48.272;14.200;2023-07-31T13:02:53;97702.03;;;25.52;43.79
81177;BME280;70786;48.272;14.200;2023-07-31T13:05:19;97702.84;;;25.45;42.99
81177;BME280;70786;48.272;14.200;2023-07-31T13:07:48;97700.00;;;25.47;42.71
81177;BME280;70786;48.272;14.200;2023-07-31T13:10:14;97700.00;;;25.54;42.23
81177;BME280;70786;48.272;14.200;2023-07-31T13:12:40;97693.66;;;25.68;41.88
81177;BME280;70786;48.272;14.200;2023-07-31T13:15:07;97693.13;;;25.26;42.38